Página principal
METAR-TAF:

METAR-TAF

Aeroportos :

Pago Pago, Ilhas Menores Distantes dos Estados Unidos

latitude: 14-20S, longitude: 170-43W, altura: 3 m

Observação actual do tempo

O boletim foi feito há 1 hora e 43 minutos, às 13:50 UTC
Vento 3 kt com direcção variável
Temperatura 27°C
Humidade 89%
Pressão 1008 hPa
Visibilidade: 16.1 km
Poucas nuvensa uma altura de 2200 ft
Nuvens dispersasa uma altura de 4000 ft
Nuvens fragmentadasa uma altura de 10000 ft

METAR: NSTU 171350Z VRB03KT 10SM FEW022 SCT040 BKN100 27/25 A2977 RMK SLP083 T02720247

Hora: 04:33 (15:33 UTC)

Previsão

O boletim foi feito há 4 horas e 13 minutos, às 11:20 UTC
Previsão válida de 17 às 12 UTC a 18 às 12 UTC
Vento 4 kt com direcção variável
Visibilidade: 10 km
Nuvens dispersasa uma altura de 1800 ft
Nuvens dispersasa uma altura de 4000 ft
Nuvens fragmentadasa uma altura de 20000 ft
aguaceiros nas vizinhanças

TAF: NSTU 171120Z 1712/1812 VRB04KT P6SM VCSH SCT018 SCT040 BKN200

Observações e previsões do tempo de mais de 4000 aeroportos (mensagens METAR e TAF).

As estações disponíveis são os pontos amarelos e vermelhos sobre o mapa.

Mova o rato sobre o mapa para ver o nome da estação.

Depois clique no ponto para visualizar as observações e previsões meteorológicas.

Para alterar o mapa : clique nos botões verdes com uma cruz preta para aumentar o zoom; no botão verde com uma pitada de zoom; ou nas setas verdes para mapas adjacentes.


METAR-TAF: